createdAt,value
2023-04-29T00:01:31.819Z,26.90
2023-04-29T00:03:58.709Z,25.02
2023-04-29T00:06:25.564Z,24.35
2023-04-29T00:08:53.301Z,28.33
2023-04-29T00:11:19.979Z,31.25
2023-04-29T00:13:46.587Z,29.38
2023-04-29T00:16:13.932Z,26.65
2023-04-29T00:18:40.521Z,30.25
2023-04-29T00:21:07.226Z,26.92
2023-04-29T00:23:34.605Z,24.13
2023-04-29T00:26:01.302Z,24.88
2023-04-29T00:28:28.060Z,21.52
2023-04-29T00:30:56.270Z,23.95
2023-04-29T00:33:23.319Z,23.27
2023-04-29T00:35:50.359Z,21.10
2023-04-29T00:38:17.340Z,25.25
2023-04-29T00:40:44.617Z,23.38
2023-04-29T00:43:11.259Z,21.20
2023-04-29T00:45:37.910Z,25.13
2023-04-29T00:48:05.016Z,22.08
2023-04-29T00:50:32.214Z,24.33
2023-04-29T00:52:59.538Z,16.90
2023-04-29T00:55:29.258Z,22.85
2023-04-29T00:57:57.169Z,20.05
2023-04-29T01:00:24.964Z,20.42
2023-04-29T01:02:53.886Z,23.90
2023-04-29T01:05:20.576Z,21.90
2023-04-29T01:08:09.507Z,16.50
2023-04-29T01:10:41.849Z,19.27
2023-04-29T01:13:32.958Z,24.13
2023-04-29T01:16:04.920Z,20.13
2023-04-29T01:18:43.558Z,20.83
2023-04-29T01:21:10.245Z,23.40
2023-04-29T01:23:36.886Z,21.65
2023-04-29T01:26:03.746Z,18.33
2023-04-29T01:28:46.736Z,19.30
2023-04-29T01:31:38.979Z,28.23
2023-04-29T01:34:09.197Z,22.02
2023-04-29T01:37:00.049Z,24.20
2023-04-29T01:39:37.890Z,21.83
2023-04-29T01:42:26.871Z,26.45
2023-04-29T01:44:55.966Z,26.75
2023-04-29T01:47:23.073Z,23.63
2023-04-29T01:49:50.240Z,23.30
2023-04-29T01:52:17.376Z,20.90
2023-04-29T01:54:44.321Z,23.15
2023-04-29T01:57:11.017Z,20.58
2023-04-29T01:59:37.581Z,55.03
2023-04-29T02:02:04.202Z,23.33
2023-04-29T02:04:33.781Z,23.35
2023-04-29T02:07:00.566Z,19.73
2023-04-29T02:09:27.436Z,23.75
2023-04-29T02:11:54.074Z,20.10
2023-04-29T02:14:21.077Z,18.90
2023-04-29T02:16:47.815Z,21.92
2023-04-29T02:19:14.619Z,23.23
2023-04-29T02:21:41.336Z,26.27
2023-04-29T02:24:08.008Z,21.05
2023-04-29T02:26:34.587Z,20.67
2023-04-29T02:29:01.258Z,26.30
2023-04-29T02:31:29.295Z,21.35
2023-04-29T02:33:56.189Z,23.23
2023-04-29T02:36:22.974Z,28.45
2023-04-29T02:38:54.097Z,25.42
2023-04-29T02:41:21.074Z,26.80
2023-04-29T02:43:49.151Z,26.55
2023-04-29T02:46:16.822Z,20.42
2023-04-29T02:48:43.484Z,25.40
2023-04-29T02:51:10.115Z,29.02
2023-04-29T02:53:37.189Z,25.80
2023-04-29T02:56:04.031Z,24.50
2023-04-29T02:58:30.692Z,17.20
2023-04-29T03:00:57.453Z,22.75
2023-04-29T03:03:24.393Z,24.35
2023-04-29T03:05:51.282Z,24.88
2023-04-29T03:08:17.857Z,22.90
2023-04-29T03:10:44.551Z,30.92
2023-04-29T03:13:11.182Z,24.63
2023-04-29T03:15:38.650Z,19.52
2023-04-29T03:18:05.383Z,23.27
2023-04-29T03:20:32.827Z,24.67
2023-04-29T03:23:01.004Z,22.77
2023-04-29T03:25:28.722Z,27.00
2023-04-29T03:27:55.409Z,22.52
2023-04-29T03:30:22.288Z,26.08
2023-04-29T03:32:49.157Z,28.63
2023-04-29T03:35:16.144Z,27.27
2023-04-29T03:37:45.140Z,22.38
2023-04-29T03:40:12.670Z,29.30
2023-04-29T03:42:39.386Z,32.55
2023-04-29T03:45:08.157Z,24.23
2023-04-29T03:47:34.973Z,39.72
2023-04-29T03:50:01.657Z,25.63
2023-04-29T03:52:28.426Z,28.02
2023-04-29T03:54:55.226Z,25.98
2023-04-29T03:57:21.888Z,24.58
2023-04-29T03:59:50.637Z,25.77
2023-04-29T04:02:17.859Z,26.85
2023-04-29T04:04:44.912Z,22.10
2023-04-29T04:07:11.888Z,20.75
2023-04-29T04:09:38.793Z,25.10
2023-04-29T04:12:06.602Z,25.55
2023-04-29T04:14:33.321Z,28.02
2023-04-29T04:17:00.021Z,30.52
2023-04-29T04:19:27.238Z,22.25
2023-04-29T04:21:54.118Z,24.35
2023-04-29T04:24:20.939Z,20.17
2023-04-29T04:26:47.669Z,21.13
2023-04-29T04:29:14.378Z,22.33
2023-04-29T04:31:41.087Z,22.83
2023-04-29T04:34:07.997Z,19.80
2023-04-29T04:36:37.611Z,18.75
2023-04-29T04:39:04.246Z,19.05
2023-04-29T04:41:34.097Z,21.48
2023-04-29T04:44:03.259Z,18.98
2023-04-29T04:46:29.906Z,24.00
2023-04-29T04:48:56.637Z,19.70
2023-04-29T04:51:23.383Z,18.67
2023-04-29T04:53:50.000Z,25.55
2023-04-29T04:56:16.636Z,17.65
2023-04-29T04:58:43.490Z,32.50
2023-04-29T05:01:10.271Z,26.80
2023-04-29T05:03:37.319Z,22.67
2023-04-29T05:06:04.657Z,20.45
2023-04-29T05:08:31.488Z,19.25
2023-04-29T05:10:58.685Z,23.73
2023-04-29T05:13:28.355Z,21.10
2023-04-29T05:15:55.079Z,24.90
2023-04-29T05:18:21.983Z,30.20
2023-04-29T05:20:48.645Z,23.20
2023-04-29T05:23:15.271Z,41.50
2023-04-29T05:25:42.521Z,18.92
2023-04-29T06:02:23.775Z,16.25
2023-04-29T06:04:50.828Z,15.00
2023-04-29T06:07:20.202Z,20.05
2023-04-29T06:09:47.345Z,20.88
2023-04-29T06:12:14.473Z,20.33
2023-04-29T06:14:41.127Z,24.80
2023-04-29T06:17:10.064Z,19.65
2023-04-29T06:19:36.728Z,15.45
2023-04-29T06:22:03.477Z,14.75
2023-04-29T06:24:30.204Z,20.02
2023-04-29T06:53:55.978Z,18.60
2023-04-29T06:56:23.984Z,19.05
2023-04-29T06:58:50.634Z,19.73
2023-04-29T07:01:17.474Z,19.08
2023-04-29T07:03:44.677Z,14.07
2023-04-29T07:06:11.522Z,18.88
2023-04-29T07:08:38.350Z,15.63
2023-04-29T07:11:05.371Z,13.65
2023-04-29T07:13:32.002Z,15.90
2023-04-29T07:15:58.733Z,13.85
2023-04-29T07:18:25.568Z,18.95
2023-04-29T07:20:55.889Z,15.27
2023-04-29T07:23:22.629Z,16.00
2023-04-29T07:25:49.295Z,14.00
2023-04-29T07:28:15.959Z,14.07
2023-04-29T07:30:42.519Z,10.77
2023-04-29T07:33:14.552Z,14.95
2023-04-29T07:35:43.198Z,28.20
2023-04-29T07:38:12.994Z,32.85
2023-04-29T07:40:39.590Z,35.00
2023-04-29T07:43:07.393Z,18.08
2023-04-29T07:45:34.145Z,23.45
2023-04-29T07:48:03.069Z,15.70
2023-04-29T07:50:29.758Z,15.15
2023-04-29T07:52:59.306Z,16.98
2023-04-29T07:55:27.425Z,11.50
2023-04-29T07:57:54.096Z,20.20
2023-04-29T08:00:20.944Z,10.98
2023-04-29T08:02:51.261Z,15.30
2023-04-29T08:05:19.236Z,9.82
2023-04-29T08:07:46.095Z,41.88
2023-04-29T08:10:12.912Z,28.08
2023-04-29T08:12:39.661Z,15.75
2023-04-29T08:15:08.417Z,21.65
2023-04-29T11:44:25.282Z,9.07
2023-04-29T11:46:51.888Z,7.15
2023-04-29T11:49:18.713Z,5.97
2023-04-29T11:51:45.943Z,5.43
2023-04-29T11:54:12.621Z,6.72
2023-04-29T11:56:39.322Z,17.17
2023-04-29T11:59:08.265Z,4.80
2023-04-29T12:01:36.122Z,4.20
2023-04-29T12:04:03.468Z,7.68
2023-04-29T12:06:30.718Z,4.75
2023-04-29T13:03:22.478Z,8.90
2023-04-29T13:05:52.774Z,7.13
2023-04-29T13:08:19.851Z,6.05
2023-04-29T13:10:46.577Z,4.65
2023-04-29T13:13:13.325Z,4.53
2023-04-29T13:15:40.086Z,5.55
2023-04-29T13:18:06.952Z,6.13
2023-04-29T13:20:40.880Z,5.05
2023-04-29T13:23:09.163Z,5.45
2023-04-29T13:25:35.963Z,6.22
2023-04-29T13:28:02.842Z,4.63
2023-04-29T13:30:29.536Z,6.15
2023-04-29T13:32:59.886Z,7.32
2023-04-29T13:35:36.164Z,10.18
2023-04-29T13:38:02.917Z,9.35
2023-04-29T13:40:29.554Z,6.00
2023-04-29T13:43:04.326Z,10.88
2023-04-29T13:45:38.969Z,9.98
2023-04-29T13:48:16.922Z,12.48
2023-04-29T13:51:26.299Z,5.22
2023-04-29T13:54:10.678Z,11.80
2023-04-29T14:01:55.244Z,10.57
2023-04-29T14:04:10.129Z,9.73
2023-04-29T14:06:37.270Z,5.32
2023-04-29T14:09:04.439Z,7.68
2023-04-29T14:11:31.161Z,5.07
2023-04-29T14:13:57.750Z,5.28
2023-04-29T14:16:24.596Z,3.67
2023-04-29T14:18:51.428Z,5.28
2023-04-29T14:21:18.164Z,4.82
2023-04-29T14:23:47.135Z,3.53
2023-04-29T14:26:27.187Z,4.00
2023-04-29T14:28:58.606Z,7.28
2023-04-29T14:31:28.368Z,4.25
2023-04-29T14:33:56.662Z,6.18
2023-04-29T14:36:23.571Z,3.58
2023-04-29T14:38:50.415Z,3.78
2023-04-29T14:41:17.146Z,6.15
2023-04-29T14:43:44.426Z,8.82
2023-04-29T14:46:11.309Z,10.57
2023-04-29T14:48:38.047Z,5.82
2023-04-29T14:51:06.269Z,6.95
2023-04-29T14:53:33.239Z,5.22
2023-04-29T14:56:00.372Z,8.73
2023-04-29T14:58:27.022Z,5.35
2023-04-29T15:00:56.004Z,6.25
2023-04-29T15:03:23.397Z,5.82
2023-04-29T15:05:51.521Z,4.88
2023-04-29T15:08:19.215Z,5.20
2023-04-29T15:10:47.932Z,4.28
2023-04-29T15:13:14.779Z,4.10
2023-04-29T15:15:41.981Z,7.65
2023-04-29T15:18:09.186Z,11.48
2023-04-29T15:20:37.203Z,4.65
2023-04-29T15:23:05.575Z,4.35
2023-04-29T15:25:34.612Z,6.10
2023-04-29T15:28:03.910Z,5.30
2023-04-29T15:30:30.766Z,5.50
2023-04-29T15:32:57.579Z,6.63
2023-04-29T15:35:24.286Z,5.25
2023-04-29T15:37:50.973Z,3.35
2023-04-29T15:40:17.833Z,3.53
2023-04-29T15:42:47.191Z,5.82
2023-04-29T15:45:14.097Z,4.35
2023-04-29T15:47:40.884Z,5.05
2023-04-29T15:50:09.621Z,7.72
2023-04-29T15:52:36.972Z,5.32
2023-04-29T15:55:05.007Z,7.78
2023-04-29T15:57:31.705Z,8.95
2023-04-29T15:59:58.602Z,11.30
2023-04-29T16:02:25.507Z,9.32
2023-04-29T16:04:52.163Z,4.75
2023-04-29T16:07:18.853Z,5.85
2023-04-29T16:09:46.038Z,7.22
2023-04-29T16:12:14.034Z,9.18
2023-04-29T16:14:40.734Z,10.35
2023-04-29T16:17:07.833Z,11.60
2023-04-29T16:19:36.865Z,12.98
2023-04-29T16:22:04.495Z,10.88
2023-04-29T16:24:31.148Z,27.88
2023-04-29T16:26:59.141Z,7.63
2023-04-29T16:29:26.167Z,10.73
2023-04-29T16:31:53.044Z,14.38
2023-04-29T16:34:20.233Z,10.23
2023-04-29T16:36:47.004Z,6.40
2023-04-29T16:39:16.999Z,8.65
2023-04-29T16:41:43.614Z,6.70
2023-04-29T16:44:14.363Z,5.72
2023-04-29T16:46:41.083Z,8.10
2023-04-29T16:49:07.908Z,12.55
2023-04-29T16:51:34.583Z,25.20
2023-04-29T16:54:01.309Z,25.10
2023-04-29T16:56:28.085Z,18.27
2023-04-29T16:58:54.673Z,22.17
2023-04-29T17:01:21.476Z,23.75
2023-04-29T17:03:50.677Z,24.58
2023-04-29T17:06:17.742Z,14.40
2023-04-29T17:08:45.475Z,20.13
2023-04-29T17:11:12.308Z,23.70
2023-04-29T17:16:06.386Z,58.08
2023-04-29T17:18:33.125Z,77.60
2023-04-29T17:20:59.728Z,51.05
2023-04-29T17:23:26.387Z,48.90
2023-04-29T17:25:54.731Z,31.33
2023-04-29T17:28:21.407Z,44.80
2023-04-29T17:30:48.254Z,40.28
2023-04-29T17:33:17.312Z,57.28
2023-04-29T17:35:44.468Z,59.25
2023-04-29T17:38:12.110Z,48.28
2023-04-29T17:40:38.864Z,39.85
2023-04-29T17:43:05.534Z,31.92
2023-04-29T17:45:32.326Z,16.73
2023-04-29T17:47:59.054Z,18.20
2023-04-29T17:50:25.819Z,12.45
2023-04-29T17:52:52.414Z,16.13
2023-04-29T17:55:19.207Z,27.95
2023-04-29T18:00:13.010Z,28.50
2023-04-29T18:05:06.793Z,20.63
2023-04-29T18:07:33.839Z,15.52
2023-04-29T18:10:00.633Z,25.60
2023-04-29T18:12:27.285Z,21.92
2023-04-29T18:14:53.993Z,13.80
2023-04-29T18:17:20.828Z,29.60
2023-04-29T18:19:49.600Z,33.10
2023-04-29T18:22:16.499Z,17.48
2023-04-29T18:24:43.778Z,17.23
2023-04-29T18:27:10.586Z,16.13
2023-04-29T18:29:37.373Z,18.30
2023-04-29T18:32:06.442Z,18.63
2023-04-29T18:34:34.548Z,13.73
2023-04-29T18:37:01.662Z,15.43
2023-04-29T18:39:31.351Z,16.30
2023-04-29T18:41:58.200Z,19.92
2023-04-29T18:44:26.156Z,17.75
2023-04-29T18:46:52.962Z,20.00
2023-04-29T18:49:19.590Z,15.43
2023-04-29T18:51:54.897Z,20.73
2023-04-29T18:54:21.842Z,15.35
2023-04-29T21:11:48.709Z,22.92
2023-04-29T21:14:18.799Z,23.85
2023-04-29T21:16:50.794Z,26.77
2023-04-29T21:19:17.528Z,28.02
2023-04-29T21:21:44.131Z,23.20
2023-04-29T21:24:10.715Z,16.90
2023-04-29T21:26:37.379Z,20.77
2023-04-29T21:29:04.208Z,25.42
2023-04-29T21:31:31.421Z,25.38
2023-04-29T21:33:58.304Z,22.52
2023-04-29T21:36:24.903Z,19.08
2023-04-29T21:38:52.819Z,27.10
2023-04-29T21:41:24.701Z,68.97
2023-04-29T21:43:51.701Z,20.80
2023-04-29T21:46:19.731Z,20.92
2023-04-29T21:48:46.870Z,32.20
2023-04-29T21:51:13.479Z,29.58
2023-04-29T21:53:43.190Z,43.15
2023-04-29T21:56:09.797Z,19.20
2023-04-29T21:58:36.560Z,21.15
2023-04-29T22:01:05.687Z,30.60
2023-04-29T22:03:36.584Z,21.42
2023-04-29T22:06:03.285Z,21.48
2023-04-29T22:08:30.173Z,22.98
2023-04-29T22:10:56.877Z,32.05
2023-04-29T22:13:25.770Z,32.70
2023-04-29T22:15:52.424Z,24.50
2023-04-29T22:18:19.234Z,18.63
2023-04-29T22:20:45.799Z,18.30
